createdAt,value
2023-05-14T00:00:42.968Z,12.99
2023-05-14T00:03:44.783Z,12.97
2023-05-14T00:06:46.704Z,13.42
2023-05-14T00:09:48.410Z,13.31
2023-05-14T00:12:51.207Z,13.13
2023-05-14T00:15:54.321Z,13.13
2023-05-14T00:18:56.239Z,13.15
2023-05-14T00:21:58.018Z,13.44
2023-05-14T00:24:59.815Z,13.42
2023-05-14T00:28:01.573Z,13.34
2023-05-14T00:31:05.359Z,13.53
2023-05-14T00:34:07.084Z,13.80
2023-05-14T00:37:08.902Z,13.71
2023-05-14T00:40:12.927Z,13.56
2023-05-14T00:43:14.877Z,13.37
2023-05-14T00:46:17.978Z,13.39
2023-05-14T00:49:20.050Z,13.26
2023-05-14T00:52:22.241Z,13.36
2023-05-14T00:55:24.093Z,13.18
2023-05-14T00:58:26.284Z,13.04
2023-05-14T01:01:30.036Z,12.93
2023-05-14T01:04:32.345Z,12.68
2023-05-14T01:07:40.911Z,12.46
2023-05-14T01:10:49.830Z,12.27
2023-05-14T01:14:05.012Z,12.14
2023-05-14T01:17:11.078Z,11.87
2023-05-14T01:20:13.195Z,11.79
2023-05-14T01:23:16.168Z,11.66
2023-05-14T01:26:18.579Z,11.75
2023-05-14T01:29:24.033Z,11.65
2023-05-14T01:32:28.370Z,11.81
2023-05-14T01:35:30.706Z,11.77
2023-05-14T01:38:35.790Z,11.69
2023-05-14T01:41:39.321Z,11.35
2023-05-14T01:44:41.830Z,11.21
2023-05-14T01:47:43.546Z,11.19
2023-05-14T01:50:45.607Z,11.08
2023-05-14T01:53:48.901Z,10.97
2023-05-14T01:56:51.157Z,10.98
2023-05-14T01:59:52.781Z,10.97
2023-05-14T02:02:54.462Z,10.95
2023-05-14T02:05:58.350Z,10.85
2023-05-14T02:09:01.432Z,10.83
2023-05-14T02:12:03.283Z,10.85
2023-05-14T02:15:06.091Z,10.79
2023-05-14T02:18:07.877Z,10.75
2023-05-14T02:21:09.607Z,10.62
2023-05-14T02:24:12.703Z,10.47
2023-05-14T02:27:14.392Z,10.40
2023-05-14T02:30:16.492Z,10.50
2023-05-14T02:33:18.930Z,10.46
2023-05-14T02:36:20.814Z,10.40
2023-05-14T02:39:24.176Z,10.29
2023-05-14T02:42:25.907Z,10.24
2023-05-14T02:45:27.716Z,10.27
2023-05-14T02:48:29.424Z,10.12
2023-05-14T02:51:31.316Z,9.96
2023-05-14T02:54:34.526Z,9.97
2023-05-14T02:57:36.350Z,9.91
2023-05-14T03:00:38.048Z,9.89
2023-05-14T03:03:40.529Z,9.94
2023-05-14T03:06:42.714Z,9.86
2023-05-14T03:09:45.745Z,9.89
2023-05-14T03:12:47.642Z,9.76
2023-05-14T03:15:49.456Z,9.71
2023-05-14T03:18:51.179Z,9.62
2023-05-14T03:21:53.020Z,9.61
2023-05-14T03:24:56.006Z,9.57
2023-05-14T03:27:57.834Z,9.58
2023-05-14T03:30:59.780Z,9.54
2023-05-14T03:34:01.541Z,9.60
2023-05-14T03:37:03.789Z,9.69
2023-05-14T03:40:08.267Z,9.63
2023-05-14T03:43:11.700Z,9.56
2023-05-14T03:46:13.409Z,9.50
2023-05-14T03:49:15.596Z,9.45
2023-05-14T03:52:17.352Z,9.48
2023-05-14T03:55:21.438Z,9.69
2023-05-14T03:58:23.132Z,9.79
2023-05-14T04:01:24.953Z,9.83
2023-05-14T04:04:26.700Z,9.99
2023-05-14T04:07:28.364Z,10.17
2023-05-14T04:10:32.118Z,10.29
2023-05-14T04:13:35.466Z,10.35
2023-05-14T04:16:37.548Z,10.49
2023-05-14T04:19:40.454Z,10.54
2023-05-14T04:22:42.153Z,10.64
2023-05-14T04:25:45.380Z,10.69
2023-05-14T04:28:47.025Z,10.67
2023-05-14T04:31:49.553Z,10.68
2023-05-14T04:34:51.316Z,10.73
2023-05-14T04:37:53.070Z,10.89
2023-05-14T04:40:56.932Z,10.92
2023-05-14T04:44:01.844Z,10.92
2023-05-14T04:47:03.568Z,10.77
2023-05-14T04:50:06.549Z,10.63
2023-05-14T04:53:08.247Z,10.54
2023-05-14T04:56:11.305Z,10.51
2023-05-14T04:59:13.016Z,10.64
2023-05-14T05:02:14.834Z,10.77
2023-05-14T05:05:16.448Z,10.91
2023-05-14T05:08:18.264Z,11.10
2023-05-14T05:11:21.380Z,11.25
2023-05-14T05:14:23.054Z,11.46
2023-05-14T05:17:24.933Z,11.58
2023-05-14T05:20:28.342Z,11.63
2023-05-14T05:23:30.043Z,11.68
2023-05-14T05:26:33.257Z,11.92
2023-05-14T05:29:35.374Z,12.23
2023-05-14T05:32:37.455Z,12.48
2023-05-14T05:35:39.324Z,12.65
2023-05-14T05:38:40.924Z,13.02
2023-05-14T05:41:44.337Z,13.17
2023-05-14T05:44:45.977Z,13.11
2023-05-14T05:47:47.785Z,13.32
2023-05-14T05:50:50.258Z,13.47
2023-05-14T05:53:52.038Z,13.55
2023-05-14T05:56:55.523Z,13.53
2023-05-14T05:59:58.025Z,13.55
2023-05-14T06:02:59.837Z,13.36
2023-05-14T06:06:01.668Z,13.41
2023-05-14T06:09:04.699Z,13.44
2023-05-14T06:12:08.831Z,13.31
2023-05-14T06:15:12.095Z,13.28
2023-05-14T06:18:13.789Z,13.47
2023-05-14T06:21:15.685Z,13.93
2023-05-14T06:24:17.382Z,14.08
2023-05-14T06:27:20.424Z,13.99
2023-05-14T06:30:22.480Z,13.98
2023-05-14T06:33:30.717Z,13.92
2023-05-14T06:36:32.533Z,13.85
2023-05-14T06:39:34.274Z,13.89
2023-05-14T06:42:37.391Z,13.99
2023-05-14T06:45:39.971Z,13.87
2023-05-14T06:48:41.751Z,13.72
2023-05-14T06:51:43.554Z,13.68
2023-05-14T06:54:45.448Z,13.92
2023-05-14T06:57:48.625Z,13.84
2023-05-14T07:00:50.340Z,13.84
2023-05-14T07:03:52.036Z,14.18
2023-05-14T07:06:53.726Z,14.04
2023-05-14T07:09:55.464Z,14.26
2023-05-14T07:12:58.640Z,14.51
2023-05-14T07:16:00.486Z,14.58
2023-05-14T07:19:02.176Z,14.46
2023-05-14T07:22:04.321Z,14.50
2023-05-14T07:25:06.672Z,14.60
2023-05-14T07:28:09.887Z,14.52
2023-05-14T07:31:11.610Z,14.47
2023-05-14T07:34:13.556Z,14.67
2023-05-14T07:37:15.262Z,14.80
2023-05-14T07:40:17.564Z,14.92
2023-05-14T07:43:20.666Z,14.95
2023-05-14T07:46:23.806Z,14.95
2023-05-14T07:49:25.555Z,14.92
2023-05-14T07:52:27.365Z,15.00
2023-05-14T07:55:29.220Z,15.35
2023-05-14T07:58:32.519Z,15.37
2023-05-14T08:01:34.344Z,15.39
2023-05-14T08:04:36.325Z,15.64
2023-05-14T08:07:38.283Z,16.11
2023-05-14T08:10:40.116Z,16.28
2023-05-14T08:13:43.254Z,16.17
2023-05-14T08:16:45.160Z,16.50
2023-05-14T08:19:46.972Z,16.57
2023-05-14T08:22:49.154Z,16.53
2023-05-14T08:25:51.024Z,16.21
2023-05-14T08:28:54.761Z,16.26
2023-05-14T08:31:57.287Z,16.04
2023-05-14T08:34:59.564Z,16.01
2023-05-14T08:38:01.255Z,15.85
2023-05-14T08:41:06.190Z,15.77
2023-05-14T08:44:13.130Z,15.76
2023-05-14T08:47:16.288Z,15.69
2023-05-14T08:50:22.415Z,15.56
2023-05-14T08:53:24.998Z,15.60
2023-05-14T08:56:27.031Z,15.66
2023-05-14T08:59:30.318Z,15.62
2023-05-14T09:02:32.555Z,15.50
2023-05-14T09:05:34.731Z,15.64
2023-05-14T09:08:36.638Z,15.90
2023-05-14T09:11:41.390Z,16.31
2023-05-14T09:14:44.644Z,16.47
2023-05-14T09:17:47.964Z,16.86
2023-05-14T09:20:49.924Z,16.69
2023-05-14T09:23:55.153Z,16.55
2023-05-14T09:26:58.181Z,16.79
2023-05-14T09:30:12.633Z,16.82
2023-05-14T09:33:26.517Z,16.68
2023-05-14T09:36:28.180Z,16.78
2023-05-14T09:39:30.590Z,16.83
2023-05-14T09:42:32.789Z,16.59
2023-05-14T09:45:36.410Z,16.94
2023-05-14T09:48:38.386Z,17.27
2023-05-14T09:51:40.217Z,17.85
2023-05-14T09:54:41.978Z,17.59
2023-05-14T09:58:04.243Z,17.91
2023-05-14T10:01:08.309Z,18.12
2023-05-14T10:04:11.825Z,18.03
2023-05-14T10:07:14.415Z,18.36
2023-05-14T10:10:19.531Z,18.38
2023-05-14T10:13:27.792Z,18.26
2023-05-14T10:16:34.913Z,18.20
2023-05-14T10:19:40.322Z,17.66
2023-05-14T10:22:42.242Z,17.78
2023-05-14T10:25:44.376Z,17.88
2023-05-14T10:28:46.766Z,18.09
2023-05-14T10:31:51.672Z,18.07
2023-05-14T10:34:53.882Z,18.49
2023-05-14T10:37:56.690Z,18.57
2023-05-14T10:41:02.562Z,18.93
2023-05-14T10:44:09.464Z,18.63
2023-05-14T10:47:12.748Z,18.76
2023-05-14T10:50:16.096Z,18.55
2023-05-14T10:53:18.519Z,18.40
2023-05-14T10:56:21.505Z,18.92
2023-05-14T10:59:27.162Z,18.51
2023-05-14T11:02:32.647Z,18.27
2023-05-14T11:05:37.189Z,18.23
2023-05-14T11:08:39.838Z,18.20
2023-05-14T11:11:41.957Z,18.30
2023-05-14T11:14:43.919Z,18.66
2023-05-14T11:17:48.435Z,18.83
2023-05-14T11:20:50.014Z,18.37
2023-05-14T11:23:51.651Z,18.31
2023-05-14T11:26:55.693Z,18.06
2023-05-14T11:29:58.574Z,18.14
2023-05-14T11:33:02.309Z,18.21
2023-05-14T11:36:04.936Z,18.11
2023-05-14T11:39:07.889Z,18.12
2023-05-14T11:42:16.739Z,18.03
2023-05-14T11:45:26.330Z,18.22
2023-05-14T11:48:29.296Z,17.88
2023-05-14T11:51:32.026Z,18.05
2023-05-14T11:54:34.786Z,18.00
2023-05-14T11:57:36.760Z,18.04
2023-05-14T12:00:38.603Z,17.86
2023-05-14T12:03:42.412Z,17.66
2023-05-14T12:06:44.283Z,17.65
2023-05-14T12:09:49.682Z,17.61
2023-05-14T12:12:51.643Z,17.49
2023-05-14T12:15:56.155Z,17.34
2023-05-14T12:19:01.764Z,17.38
2023-05-14T12:22:03.595Z,17.30
2023-05-14T12:25:12.312Z,17.27
2023-05-14T12:28:15.888Z,17.32
2023-05-14T12:31:17.749Z,17.35
2023-05-14T12:34:20.897Z,17.45
2023-05-14T12:37:22.675Z,17.50
2023-05-14T12:40:24.694Z,17.54
2023-05-14T12:43:31.433Z,17.59
2023-05-14T12:46:34.326Z,17.84
2023-05-14T12:49:37.627Z,18.09
2023-05-14T12:52:40.104Z,18.36
2023-05-14T12:55:42.058Z,18.18
2023-05-14T12:58:44.016Z,18.25
2023-05-14T13:01:45.698Z,18.46
2023-05-14T13:04:48.741Z,18.87
2023-05-14T13:07:52.823Z,19.05
2023-05-14T13:10:55.536Z,19.30
2023-05-14T13:13:57.794Z,19.87
2023-05-14T13:16:59.682Z,20.04
2023-05-14T13:20:02.982Z,20.96
2023-05-14T13:23:04.702Z,20.76
2023-05-14T13:26:06.966Z,20.31
2023-05-14T13:29:08.707Z,20.04
2023-05-14T13:32:10.584Z,20.07
2023-05-14T13:35:13.876Z,19.94
2023-05-14T13:38:15.628Z,19.64
2023-05-14T13:41:17.306Z,19.78
2023-05-14T13:44:18.983Z,20.20
2023-05-14T13:47:20.679Z,19.96
2023-05-14T13:50:23.817Z,19.24
2023-05-14T13:53:26.302Z,19.55
2023-05-14T13:56:27.987Z,19.86
2023-05-14T13:59:29.704Z,20.26
2023-05-14T14:02:33.540Z,20.35
2023-05-14T14:05:37.578Z,19.50
2023-05-14T14:08:39.281Z,20.32
2023-05-14T14:11:41.260Z,21.16
2023-05-14T14:14:42.954Z,21.40
2023-05-14T14:17:45.008Z,21.57
2023-05-14T14:20:48.241Z,21.78
2023-05-14T14:23:49.928Z,21.93
2023-05-14T14:26:51.674Z,21.17
2023-05-14T14:29:53.416Z,22.38
2023-05-14T14:32:55.308Z,21.87
2023-05-14T14:35:58.421Z,22.84
2023-05-14T14:39:00.366Z,21.76
2023-05-14T14:42:02.103Z,22.45
2023-05-14T14:45:04.502Z,22.47
2023-05-14T14:48:26.923Z,22.12
2023-05-14T14:51:30.369Z,22.03
2023-05-14T14:54:32.049Z,22.21
2023-05-14T14:57:33.909Z,21.86
2023-05-14T15:00:35.666Z,22.05
2023-05-14T15:03:37.494Z,22.55
2023-05-14T15:06:40.869Z,23.23
2023-05-14T15:09:42.811Z,22.61
2023-05-14T15:12:45.094Z,23.39
2023-05-14T15:15:47.338Z,23.06
2023-05-14T15:18:49.105Z,23.24
2023-05-14T15:21:52.675Z,23.77
2023-05-14T15:24:54.474Z,22.86
2023-05-14T15:27:56.268Z,23.20
2023-05-14T15:30:58.159Z,25.10
2023-05-14T15:34:00.949Z,25.33
2023-05-14T15:37:04.114Z,24.40
2023-05-14T15:40:10.455Z,24.54
2023-05-14T15:43:12.385Z,24.56
2023-05-14T15:46:14.141Z,24.55
2023-05-14T15:49:15.840Z,24.49
2023-05-14T15:52:18.898Z,23.87
2023-05-14T15:55:20.892Z,24.56
2023-05-14T15:58:22.652Z,24.82
2023-05-14T16:01:24.507Z,24.35
2023-05-14T16:04:26.292Z,23.07
2023-05-14T16:07:49.827Z,23.47
2023-05-14T16:10:51.505Z,23.14
2023-05-14T16:13:53.281Z,23.71
2023-05-14T16:16:55.373Z,23.25
2023-05-14T16:19:57.283Z,23.56
2023-05-14T16:23:00.341Z,22.64
2023-05-14T16:26:02.144Z,23.60
2023-05-14T16:29:04.214Z,23.64
2023-05-14T16:32:06.290Z,23.12
2023-05-14T16:35:08.957Z,22.50
2023-05-14T16:38:12.238Z,23.71
2023-05-14T16:41:15.063Z,24.22
2023-05-14T16:44:16.802Z,22.59
2023-05-14T16:47:18.541Z,23.89
2023-05-14T16:50:20.983Z,24.93
2023-05-14T16:53:24.136Z,25.14
2023-05-14T16:56:26.536Z,24.21
2023-05-14T16:59:28.588Z,23.26
2023-05-14T17:02:30.530Z,23.19
2023-05-14T17:05:32.274Z,22.64
2023-05-14T17:08:35.681Z,23.27
2023-05-14T17:11:37.530Z,23.25
2023-05-14T17:14:39.191Z,21.97
2023-05-14T17:17:40.958Z,22.40
2023-05-14T17:20:42.623Z,22.33
2023-05-14T17:23:46.021Z,22.40
2023-05-14T17:26:47.737Z,21.93
2023-05-14T17:29:51.204Z,22.19
2023-05-14T17:32:52.918Z,22.07
2023-05-14T17:35:54.646Z,21.64
2023-05-14T17:38:58.235Z,21.50
2023-05-14T17:42:00.295Z,20.79
2023-05-14T17:45:02.056Z,20.30
2023-05-14T17:48:04.094Z,19.71
2023-05-14T17:51:05.853Z,19.22
2023-05-14T17:54:08.924Z,18.87
2023-05-14T17:57:10.711Z,18.87
2023-05-14T18:00:13.189Z,18.59
2023-05-14T18:03:15.092Z,18.65
2023-05-14T18:06:16.971Z,18.20
2023-05-14T18:09:20.158Z,18.02
2023-05-14T18:12:21.879Z,17.03
2023-05-14T18:15:25.668Z,16.18
2023-05-14T18:18:27.866Z,16.45
2023-05-14T18:21:29.910Z,16.51
2023-05-14T18:24:32.897Z,16.46
2023-05-14T18:27:35.085Z,16.04
2023-05-14T18:30:36.853Z,15.82
2023-05-14T18:33:38.701Z,15.88
2023-05-14T18:36:41.006Z,15.80
2023-05-14T18:39:43.949Z,15.91
2023-05-14T18:42:45.654Z,15.85
2023-05-14T18:45:48.215Z,16.16
2023-05-14T18:48:50.471Z,16.26
2023-05-14T18:51:52.232Z,15.84
2023-05-14T18:54:55.460Z,16.16
2023-05-14T18:57:57.537Z,15.93
2023-05-14T19:00:59.306Z,16.18
2023-05-14T19:04:03.133Z,16.01
2023-05-14T19:07:06.764Z,16.17
2023-05-14T19:10:11.020Z,16.09
2023-05-14T19:13:12.798Z,16.02
2023-05-14T19:16:14.712Z,15.82
2023-05-14T19:19:16.611Z,15.66
2023-05-14T19:22:19.437Z,15.68
2023-05-14T19:25:22.422Z,15.81
2023-05-14T19:28:24.305Z,15.74
2023-05-14T19:31:26.648Z,15.64
2023-05-14T19:34:28.422Z,15.56
2023-05-14T19:37:30.419Z,15.50
2023-05-14T19:40:33.615Z,15.33
2023-05-14T19:43:35.489Z,15.29
2023-05-14T19:46:37.169Z,15.15
2023-05-14T19:49:39.059Z,14.99
2023-05-14T19:52:40.726Z,15.13
2023-05-14T19:55:44.105Z,15.23
2023-05-14T19:58:45.968Z,15.16
2023-05-14T20:01:47.917Z,15.26
2023-05-14T20:04:49.784Z,15.05
2023-05-14T20:07:51.540Z,15.00
2023-05-14T20:10:54.623Z,14.99
2023-05-14T20:13:56.386Z,15.02
2023-05-14T20:16:59.863Z,15.03
2023-05-14T20:20:01.710Z,14.85
2023-05-14T20:23:03.585Z,14.86
2023-05-14T20:26:06.688Z,14.68
2023-05-14T20:29:10.888Z,14.61
2023-05-14T20:32:13.111Z,14.47
2023-05-14T20:35:14.970Z,14.38
2023-05-14T20:38:18.334Z,14.28
2023-05-14T20:41:22.910Z,14.29
2023-05-14T20:44:24.873Z,14.31
2023-05-14T20:47:28.800Z,14.12
2023-05-14T20:50:30.760Z,13.99
2023-05-14T20:53:33.266Z,13.85
2023-05-14T20:56:36.545Z,13.65
2023-05-14T20:59:38.595Z,13.43
2023-05-14T21:02:40.610Z,13.35
2023-05-14T21:05:43.767Z,13.39
2023-05-14T21:08:45.559Z,13.43
2023-05-14T21:11:49.142Z,13.50
2023-05-14T21:14:50.884Z,13.39
2023-05-14T21:17:52.673Z,13.42
2023-05-14T21:20:54.428Z,13.28
2023-05-14T21:23:56.195Z,13.22
2023-05-14T21:27:00.547Z,13.09
2023-05-14T21:30:02.353Z,12.96
2023-05-14T21:33:04.168Z,12.97
2023-05-14T21:36:07.220Z,12.99
2023-05-14T21:39:10.402Z,12.91
2023-05-14T21:42:13.712Z,12.82
2023-05-14T21:45:15.730Z,12.69
2023-05-14T21:48:17.807Z,12.76
2023-05-14T21:51:19.590Z,12.72
2023-05-14T21:54:21.512Z,12.63
2023-05-14T21:57:26.182Z,12.73
2023-05-14T22:00:29.101Z,12.81
2023-05-14T22:03:30.812Z,12.80
2023-05-14T22:06:32.548Z,12.91
2023-05-14T22:09:34.606Z,13.03
2023-05-14T22:12:37.635Z,13.08
2023-05-14T22:15:39.554Z,13.16
2023-05-14T22:18:41.624Z,12.91
2023-05-14T22:21:43.319Z,12.58
2023-05-14T22:24:45.056Z,12.40
2023-05-14T22:27:48.132Z,12.35
2023-05-14T22:30:49.912Z,12.43
2023-05-14T22:33:52.084Z,12.56
2023-05-14T22:36:53.870Z,12.47
2023-05-14T22:39:55.654Z,12.46
2023-05-14T22:42:58.600Z,12.30
2023-05-14T22:46:00.466Z,12.21
2023-05-14T22:49:02.226Z,12.08
2023-05-14T22:52:04.422Z,12.04
2023-05-14T22:55:07.384Z,12.03
2023-05-14T22:58:10.616Z,12.04
2023-05-14T23:01:12.380Z,11.99
2023-05-14T23:04:14.207Z,11.82
2023-05-14T23:07:16.817Z,11.80
2023-05-14T23:10:18.590Z,11.85
2023-05-14T23:13:21.667Z,11.86
2023-05-14T23:16:23.340Z,11.77
2023-05-14T23:19:26.430Z,11.68
2023-05-14T23:22:28.133Z,11.53
2023-05-14T23:25:29.890Z,11.45
2023-05-14T23:28:32.955Z,11.49
2023-05-14T23:31:35.315Z,11.38
2023-05-14T23:34:37.142Z,11.48
2023-05-14T23:37:42.588Z,11.46
2023-05-14T23:40:44.306Z,11.40
2023-05-14T23:43:48.785Z,11.18
2023-05-14T23:46:50.791Z,11.36
2023-05-14T23:49:52.736Z,11.35
2023-05-14T23:52:55.024Z,11.34
2023-05-14T23:55:56.905Z,11.25
2023-05-14T23:59:00.055Z,11.20
